sensor_id;sensor_type;location;lat;lon;timestamp;temperature;humidity
14877;DHT22;69691;48.172;17.070;2023-05-24T00:02:24;17.30;99.90
14877;DHT22;69691;48.172;17.070;2023-05-24T00:04:51;17.30;99.90
14877;DHT22;69691;48.172;17.070;2023-05-24T00:07:18;17.30;99.90
14877;DHT22;69691;48.172;17.070;2023-05-24T00:09:44;17.30;99.90
14877;DHT22;69691;48.172;17.070;2023-05-24T00:12:10;17.20;99.90
14877;DHT22;69691;48.172;17.070;2023-05-24T00:14:36;17.10;99.90
14877;DHT22;69691;48.172;17.070;2023-05-24T00:17:02;17.10;99.90
14877;DHT22;69691;48.172;17.070;2023-05-24T00:19:27;17.00;99.90
14877;DHT22;69691;48.172;17.070;2023-05-24T00:21:53;17.00;99.90
14877;DHT22;69691;48.172;17.070;2023-05-24T00:24:20;17.00;99.90
14877;DHT22;69691;48.172;17.070;2023-05-24T00:26:46;17.00;99.90
14877;DHT22;69691;48.172;17.070;2023-05-24T00:29:12;16.90;99.90
14877;DHT22;69691;48.172;17.070;2023-05-24T00:31:38;17.00;99.90
14877;DHT22;69691;48.172;17.070;2023-05-24T00:34:04;17.00;99.90
14877;DHT22;69691;48.172;17.070;2023-05-24T00:36:30;17.00;99.90
14877;DHT22;69691;48.172;17.070;2023-05-24T00:38:57;17.00;99.90
14877;DHT22;69691;48.172;17.070;2023-05-24T00:41:23;16.90;99.90
14877;DHT22;69691;48.172;17.070;2023-05-24T00:43:49;16.80;99.90
14877;DHT22;69691;48.172;17.070;2023-05-24T00:46:17;16.80;99.90
14877;DHT22;69691;48.172;17.070;2023-05-24T00:48:48;16.70;99.90
14877;DHT22;69691;48.172;17.070;2023-05-24T00:51:16;16.70;99.90
14877;DHT22;69691;48.172;17.070;2023-05-24T00:53:46;16.60;99.90
14877;DHT22;69691;48.172;17.070;2023-05-24T00:56:13;16.60;99.90
14877;DHT22;69691;48.172;17.070;2023-05-24T00:58:40;16.60;99.90
14877;DHT22;69691;48.172;17.070;2023-05-24T01:01:06;16.50;99.90
14877;DHT22;69691;48.172;17.070;2023-05-24T01:03:33;16.50;99.90
14877;DHT22;69691;48.172;17.070;2023-05-24T01:06:02;16.40;99.90
14877;DHT22;69691;48.172;17.070;2023-05-24T01:08:44;16.40;99.90
14877;DHT22;69691;48.172;17.070;2023-05-24T01:11:42;16.30;99.90
14877;DHT22;69691;48.172;17.070;2023-05-24T01:17:48;16.20;99.90
14877;DHT22;69691;48.172;17.070;2023-05-24T01:20:19;16.10;99.90
14877;DHT22;69691;48.172;17.070;2023-05-24T01:22:53;16.20;99.90
14877;DHT22;69691;48.172;17.070;2023-05-24T01:28:10;16.20;99.90
14877;DHT22;69691;48.172;17.070;2023-05-24T01:30:40;16.20;99.90
14877;DHT22;69691;48.172;17.070;2023-05-24T01:33:06;16.20;99.90
14877;DHT22;69691;48.172;17.070;2023-05-24T01:35:31;16.20;99.90
14877;DHT22;69691;48.172;17.070;2023-05-24T01:38:05;16.20;99.90
14877;DHT22;69691;48.172;17.070;2023-05-24T01:40:33;16.30;99.90
14877;DHT22;69691;48.172;17.070;2023-05-24T01:43:07;16.40;99.90
14877;DHT22;69691;48.172;17.070;2023-05-24T01:48:58;16.30;99.90
14877;DHT22;69691;48.172;17.070;2023-05-24T01:51:57;16.30;99.90
14877;DHT22;69691;48.172;17.070;2023-05-24T01:54:26;16.30;99.90
14877;DHT22;69691;48.172;17.070;2023-05-24T01:56:53;16.30;99.90
14877;DHT22;69691;48.172;17.070;2023-05-24T01:59:21;16.30;99.90
14877;DHT22;69691;48.172;17.070;2023-05-24T02:01:49;16.30;99.90
14877;DHT22;69691;48.172;17.070;2023-05-24T02:04:16;16.30;99.90
14877;DHT22;69691;48.172;17.070;2023-05-24T02:06:43;16.40;99.90
14877;DHT22;69691;48.172;17.070;2023-05-24T02:09:09;16.40;99.90
14877;DHT22;69691;48.172;17.070;2023-05-24T02:11:35;16.40;99.90
14877;DHT22;69691;48.172;17.070;2023-05-24T02:14:01;16.40;99.90
14877;DHT22;69691;48.172;17.070;2023-05-24T02:16:27;16.40;99.90
14877;DHT22;69691;48.172;17.070;2023-05-24T02:18:57;16.50;99.90
14877;DHT22;69691;48.172;17.070;2023-05-24T02:21:23;16.50;99.90
14877;DHT22;69691;48.172;17.070;2023-05-24T02:23:50;16.50;99.90
14877;DHT22;69691;48.172;17.070;2023-05-24T02:26:16;16.50;99.90
14877;DHT22;69691;48.172;17.070;2023-05-24T02:28:43;16.50;99.90
14877;DHT22;69691;48.172;17.070;2023-05-24T02:31:09;16.50;99.90
14877;DHT22;69691;48.172;17.070;2023-05-24T02:33:35;16.50;99.90
14877;DHT22;69691;48.172;17.070;2023-05-24T02:36:02;16.50;99.90
14877;DHT22;69691;48.172;17.070;2023-05-24T02:38:27;16.50;99.90
14877;DHT22;69691;48.172;17.070;2023-05-24T02:40:54;16.60;99.90
14877;DHT22;69691;48.172;17.070;2023-05-24T02:43:19;16.50;99.90
14877;DHT22;69691;48.172;17.070;2023-05-24T02:45:45;16.50;99.90
14877;DHT22;69691;48.172;17.070;2023-05-24T02:48:11;16.50;99.90
14877;DHT22;69691;48.172;17.070;2023-05-24T02:50:37;16.50;99.90
14877;DHT22;69691;48.172;17.070;2023-05-24T02:53:03;16.50;99.90
14877;DHT22;69691;48.172;17.070;2023-05-24T02:55:29;16.50;99.90
14877;DHT22;69691;48.172;17.070;2023-05-24T02:57:57;16.40;99.90
14877;DHT22;69691;48.172;17.070;2023-05-24T03:00:23;16.40;99.90
14877;DHT22;69691;48.172;17.070;2023-05-24T03:02:49;16.40;99.90
14877;DHT22;69691;48.172;17.070;2023-05-24T03:05:17;16.30;99.90
14877;DHT22;69691;48.172;17.070;2023-05-24T03:07:43;16.40;99.90
14877;DHT22;69691;48.172;17.070;2023-05-24T03:10:09;16.40;99.90
14877;DHT22;69691;48.172;17.070;2023-05-24T03:12:35;16.30;99.90
14877;DHT22;69691;48.172;17.070;2023-05-24T03:15:01;16.30;99.90
14877;DHT22;69691;48.172;17.070;2023-05-24T03:17:29;16.40;99.90
14877;DHT22;69691;48.172;17.070;2023-05-24T03:19:55;16.30;99.90
14877;DHT22;69691;48.172;17.070;2023-05-24T03:22:21;16.30;99.90
14877;DHT22;69691;48.172;17.070;2023-05-24T03:24:47;16.30;99.90
14877;DHT22;69691;48.172;17.070;2023-05-24T03:27:13;16.30;99.90
14877;DHT22;69691;48.172;17.070;2023-05-24T03:29:39;16.40;99.90
14877;DHT22;69691;48.172;17.070;2023-05-24T03:32:05;16.30;99.90
14877;DHT22;69691;48.172;17.070;2023-05-24T03:34:31;16.40;99.90
14877;DHT22;69691;48.172;17.070;2023-05-24T03:36:57;16.40;99.90
14877;DHT22;69691;48.172;17.070;2023-05-24T03:39:22;16.50;99.90
14877;DHT22;69691;48.172;17.070;2023-05-24T03:42:05;16.50;99.90
14877;DHT22;69691;48.172;17.070;2023-05-24T03:44:31;16.50;99.90
14877;DHT22;69691;48.172;17.070;2023-05-24T03:46:58;16.50;99.90
14877;DHT22;69691;48.172;17.070;2023-05-24T03:49:24;16.50;99.90
14877;DHT22;69691;48.172;17.070;2023-05-24T03:51:50;16.50;99.90
14877;DHT22;69691;48.172;17.070;2023-05-24T03:54:17;16.30;99.90
14877;DHT22;69691;48.172;17.070;2023-05-24T03:56:43;16.20;99.90
14877;DHT22;69691;48.172;17.070;2023-05-24T03:59:09;16.20;99.90
14877;DHT22;69691;48.172;17.070;2023-05-24T04:01:34;16.20;99.90
14877;DHT22;69691;48.172;17.070;2023-05-24T04:04:02;16.10;99.90
14877;DHT22;69691;48.172;17.070;2023-05-24T04:06:28;16.10;99.90
14877;DHT22;69691;48.172;17.070;2023-05-24T04:08:59;16.20;99.90
14877;DHT22;69691;48.172;17.070;2023-05-24T04:11:26;16.30;99.90
14877;DHT22;69691;48.172;17.070;2023-05-24T04:13:56;16.30;99.90
14877;DHT22;69691;48.172;17.070;2023-05-24T04:16:22;16.30;99.90
14877;DHT22;69691;48.172;17.070;2023-05-24T04:18:55;16.30;99.90
14877;DHT22;69691;48.172;17.070;2023-05-24T04:21:22;16.40;99.90
14877;DHT22;69691;48.172;17.070;2023-05-24T04:23:48;16.40;99.90
14877;DHT22;69691;48.172;17.070;2023-05-24T04:26:14;16.40;99.90
14877;DHT22;69691;48.172;17.070;2023-05-24T04:28:40;16.40;99.90
14877;DHT22;69691;48.172;17.070;2023-05-24T04:31:07;16.50;99.90
14877;DHT22;69691;48.172;17.070;2023-05-24T04:33:35;16.40;99.90
14877;DHT22;69691;48.172;17.070;2023-05-24T04:36:01;16.50;99.90
14877;DHT22;69691;48.172;17.070;2023-05-24T04:38:30;16.50;99.90
14877;DHT22;69691;48.172;17.070;2023-05-24T04:40:59;16.60;99.90
14877;DHT22;69691;48.172;17.070;2023-05-24T04:43:25;16.70;99.90
14877;DHT22;69691;48.172;17.070;2023-05-24T04:45:52;16.80;99.90
14877;DHT22;69691;48.172;17.070;2023-05-24T04:48:22;17.00;99.90
14877;DHT22;69691;48.172;17.070;2023-05-24T04:50:53;17.20;99.90
14877;DHT22;69691;48.172;17.070;2023-05-24T04:53:20;17.20;99.90
14877;DHT22;69691;48.172;17.070;2023-05-24T04:55:48;17.30;99.90
14877;DHT22;69691;48.172;17.070;2023-05-24T04:58:14;17.30;99.90
14877;DHT22;69691;48.172;17.070;2023-05-24T05:00:42;17.30;99.90
14877;DHT22;69691;48.172;17.070;2023-05-24T05:03:08;17.30;99.90
14877;DHT22;69691;48.172;17.070;2023-05-24T05:05:34;17.30;99.90
14877;DHT22;69691;48.172;17.070;2023-05-24T05:08:01;17.40;99.90
14877;DHT22;69691;48.172;17.070;2023-05-24T05:10:27;17.70;99.90
14877;DHT22;69691;48.172;17.070;2023-05-24T05:12:53;17.80;99.90
14877;DHT22;69691;48.172;17.070;2023-05-24T05:15:21;18.00;99.90
14877;DHT22;69691;48.172;17.070;2023-05-24T05:17:47;18.30;99.90
14877;DHT22;69691;48.172;17.070;2023-05-24T05:20:13;18.50;99.90
14877;DHT22;69691;48.172;17.070;2023-05-24T05:22:44;18.60;99.90
14877;DHT22;69691;48.172;17.070;2023-05-24T05:25:13;18.80;99.90
14877;DHT22;69691;48.172;17.070;2023-05-24T05:27:40;19.10;99.90
14877;DHT22;69691;48.172;17.070;2023-05-24T05:30:06;19.30;99.90
14877;DHT22;69691;48.172;17.070;2023-05-24T05:32:33;19.60;99.90
14877;DHT22;69691;48.172;17.070;2023-05-24T05:35:00;19.70;99.90
14877;DHT22;69691;48.172;17.070;2023-05-24T05:37:25;19.80;98.90
14877;DHT22;69691;48.172;17.070;2023-05-24T05:39:51;19.80;98.80
14877;DHT22;69691;48.172;17.070;2023-05-24T05:42:17;19.90;98.70
14877;DHT22;69691;48.172;17.070;2023-05-24T05:44:43;19.90;97.60
14877;DHT22;69691;48.172;17.070;2023-05-24T05:47:09;20.10;98.30
14877;DHT22;69691;48.172;17.070;2023-05-24T05:49:35;20.40;97.10
14877;DHT22;69691;48.172;17.070;2023-05-24T05:52:03;20.60;96.10
14877;DHT22;69691;48.172;17.070;2023-05-24T05:54:32;20.80;96.30
14877;DHT22;69691;48.172;17.070;2023-05-24T05:56:59;21.00;94.80
14877;DHT22;69691;48.172;17.070;2023-05-24T05:59:25;21.30;94.60
14877;DHT22;69691;48.172;17.070;2023-05-24T06:01:51;21.40;93.10
14877;DHT22;69691;48.172;17.070;2023-05-24T06:04:17;21.40;92.70
14877;DHT22;69691;48.172;17.070;2023-05-24T06:06:43;21.50;92.40
14877;DHT22;69691;48.172;17.070;2023-05-24T06:09:15;21.60;92.40
14877;DHT22;69691;48.172;17.070;2023-05-24T06:11:41;21.80;90.90
14877;DHT22;69691;48.172;17.070;2023-05-24T06:14:13;21.70;90.40
14877;DHT22;69691;48.172;17.070;2023-05-24T06:16:43;21.70;90.00
14877;DHT22;69691;48.172;17.070;2023-05-24T06:19:11;21.90;89.20
14877;DHT22;69691;48.172;17.070;2023-05-24T06:21:38;22.10;88.20
14877;DHT22;69691;48.172;17.070;2023-05-24T06:24:05;22.20;87.10
14877;DHT22;69691;48.172;17.070;2023-05-24T06:26:35;22.20;86.00
14877;DHT22;69691;48.172;17.070;2023-05-24T06:29:02;22.00;84.70
14877;DHT22;69691;48.172;17.070;2023-05-24T06:31:28;21.80;85.00
14877;DHT22;69691;48.172;17.070;2023-05-24T06:33:54;21.60;84.20
14877;DHT22;69691;48.172;17.070;2023-05-24T06:36:20;21.70;83.80
14877;DHT22;69691;48.172;17.070;2023-05-24T06:38:45;21.70;83.60
14877;DHT22;69691;48.172;17.070;2023-05-24T06:41:11;21.70;84.50
14877;DHT22;69691;48.172;17.070;2023-05-24T06:43:37;21.80;85.00
14877;DHT22;69691;48.172;17.070;2023-05-24T06:46:05;21.90;83.00
14877;DHT22;69691;48.172;17.070;2023-05-24T06:48:34;21.90;81.90
14877;DHT22;69691;48.172;17.070;2023-05-24T06:51:00;22.00;81.10
14877;DHT22;69691;48.172;17.070;2023-05-24T06:53:26;22.10;81.50
14877;DHT22;69691;48.172;17.070;2023-05-24T06:55:52;22.20;80.90
14877;DHT22;69691;48.172;17.070;2023-05-24T06:58:18;22.50;79.10
14877;DHT22;69691;48.172;17.070;2023-05-24T07:00:44;22.80;77.80
14877;DHT22;69691;48.172;17.070;2023-05-24T07:03:13;23.00;74.30
14877;DHT22;69691;48.172;17.070;2023-05-24T07:06:38;23.20;71.70
14877;DHT22;69691;48.172;17.070;2023-05-24T07:09:03;23.40;71.20
14877;DHT22;69691;48.172;17.070;2023-05-24T07:11:31;23.40;69.10
14877;DHT22;69691;48.172;17.070;2023-05-24T07:13:57;23.60;68.80
14877;DHT22;69691;48.172;17.070;2023-05-24T07:16:26;23.80;67.70
14877;DHT22;69691;48.172;17.070;2023-05-24T07:18:53;23.90;65.70
14877;DHT22;69691;48.172;17.070;2023-05-24T07:21:19;23.90;65.60
14877;DHT22;69691;48.172;17.070;2023-05-24T07:23:45;23.80;65.10
14877;DHT22;69691;48.172;17.070;2023-05-24T07:26:11;23.90;64.60
14877;DHT22;69691;48.172;17.070;2023-05-24T07:28:37;24.00;64.50
14877;DHT22;69691;48.172;17.070;2023-05-24T07:31:05;24.10;63.50
14877;DHT22;69691;48.172;17.070;2023-05-24T07:33:33;24.30;62.30
14877;DHT22;69691;48.172;17.070;2023-05-24T07:36:00;24.30;61.70
14877;DHT22;69691;48.172;17.070;2023-05-24T07:38:27;24.30;61.40
14877;DHT22;69691;48.172;17.070;2023-05-24T07:40:53;24.20;61.40
14877;DHT22;69691;48.172;17.070;2023-05-24T07:43:19;24.20;60.10
14877;DHT22;69691;48.172;17.070;2023-05-24T07:45:45;24.20;60.20
14877;DHT22;69691;48.172;17.070;2023-05-24T07:48:11;24.20;60.70
14877;DHT22;69691;48.172;17.070;2023-05-24T07:50:37;24.30;60.30
14877;DHT22;69691;48.172;17.070;2023-05-24T07:53:03;24.60;59.60
14877;DHT22;69691;48.172;17.070;2023-05-24T07:55:29;24.80;58.60
14877;DHT22;69691;48.172;17.070;2023-05-24T07:57:55;25.10;58.00
14877;DHT22;69691;48.172;17.070;2023-05-24T08:00:21;25.20;57.00
14877;DHT22;69691;48.172;17.070;2023-05-24T08:02:47;24.90;57.00
14877;DHT22;69691;48.172;17.070;2023-05-24T08:05:14;24.60;57.30
14877;DHT22;69691;48.172;17.070;2023-05-24T08:07:41;24.40;56.70
14877;DHT22;69691;48.172;17.070;2023-05-24T08:10:09;24.30;57.30
14877;DHT22;69691;48.172;17.070;2023-05-24T08:12:38;24.30;57.90
14877;DHT22;69691;48.172;17.070;2023-05-24T08:15:05;24.60;58.40
14877;DHT22;69691;48.172;17.070;2023-05-24T08:17:31;25.10;57.00
14877;DHT22;69691;48.172;17.070;2023-05-24T08:19:57;25.30;56.50
14877;DHT22;69691;48.172;17.070;2023-05-24T08:22:23;25.30;55.80
14877;DHT22;69691;48.172;17.070;2023-05-24T08:24:49;25.10;54.90
14877;DHT22;69691;48.172;17.070;2023-05-24T08:27:16;24.80;55.70
14877;DHT22;69691;48.172;17.070;2023-05-24T08:29:42;24.60;56.10
14877;DHT22;69691;48.172;17.070;2023-05-24T08:32:08;24.50;55.90
14877;DHT22;69691;48.172;17.070;2023-05-24T08:34:37;24.40;56.60
14877;DHT22;69691;48.172;17.070;2023-05-24T08:37:03;24.50;56.90
14877;DHT22;69691;48.172;17.070;2023-05-24T08:39:29;24.40;56.70
14877;DHT22;69691;48.172;17.070;2023-05-24T08:41:57;24.40;57.20
14877;DHT22;69691;48.172;17.070;2023-05-24T08:44:24;24.40;57.10
14877;DHT22;69691;48.172;17.070;2023-05-24T08:46:51;24.50;57.40
14877;DHT22;69691;48.172;17.070;2023-05-24T08:49:18;24.60;57.40
14877;DHT22;69691;48.172;17.070;2023-05-24T08:51:44;24.50;56.50
14877;DHT22;69691;48.172;17.070;2023-05-24T08:54:10;24.20;57.20
14877;DHT22;69691;48.172;17.070;2023-05-24T08:56:39;23.70;57.70
14877;DHT22;69691;48.172;17.070;2023-05-24T08:59:08;23.40;58.90
14877;DHT22;69691;48.172;17.070;2023-05-24T09:01:42;23.10;59.00
14877;DHT22;69691;48.172;17.070;2023-05-24T09:04:09;22.90;59.40
14877;DHT22;69691;48.172;17.070;2023-05-24T09:06:35;22.70;59.80
14877;DHT22;69691;48.172;17.070;2023-05-24T09:09:02;22.60;60.00
14877;DHT22;69691;48.172;17.070;2023-05-24T09:11:30;22.50;60.50
14877;DHT22;69691;48.172;17.070;2023-05-24T09:13:57;22.60;61.20
14877;DHT22;69691;48.172;17.070;2023-05-24T09:16:24;22.60;61.60
14877;DHT22;69691;48.172;17.070;2023-05-24T09:18:49;22.50;60.30
14877;DHT22;69691;48.172;17.070;2023-05-24T09:21:15;22.40;60.90
14877;DHT22;69691;48.172;17.070;2023-05-24T09:23:42;22.30;61.50
14877;DHT22;69691;48.172;17.070;2023-05-24T09:26:10;22.40;61.90
14877;DHT22;69691;48.172;17.070;2023-05-24T09:28:37;22.70;61.00
14877;DHT22;69691;48.172;17.070;2023-05-24T09:31:03;23.10;60.00
14877;DHT22;69691;48.172;17.070;2023-05-24T09:33:30;23.40;59.10
14877;DHT22;69691;48.172;17.070;2023-05-24T09:36:01;23.40;58.70
14877;DHT22;69691;48.172;17.070;2023-05-24T09:38:29;23.30;58.60
14877;DHT22;69691;48.172;17.070;2023-05-24T09:41:02;23.20;58.90
14877;DHT22;69691;48.172;17.070;2023-05-24T09:43:33;23.30;59.00
14877;DHT22;69691;48.172;17.070;2023-05-24T09:46:03;23.30;58.80
14877;DHT22;69691;48.172;17.070;2023-05-24T09:48:30;23.30;59.50
14877;DHT22;69691;48.172;17.070;2023-05-24T09:51:05;23.30;59.20
14877;DHT22;69691;48.172;17.070;2023-05-24T09:53:34;23.60;58.90
14877;DHT22;69691;48.172;17.070;2023-05-24T09:56:08;24.00;57.80
14877;DHT22;69691;48.172;17.070;2023-05-24T09:58:35;24.20;57.20
14877;DHT22;69691;48.172;17.070;2023-05-24T10:01:10;24.30;56.40
14877;DHT22;69691;48.172;17.070;2023-05-24T10:03:37;24.70;56.10
14877;DHT22;69691;48.172;17.070;2023-05-24T10:06:04;25.00;55.90
14877;DHT22;69691;48.172;17.070;2023-05-24T10:08:35;24.90;54.90
14877;DHT22;69691;48.172;17.070;2023-05-24T10:11:04;24.90;55.10
14877;DHT22;69691;48.172;17.070;2023-05-24T10:13:31;24.90;54.70
14877;DHT22;69691;48.172;17.070;2023-05-24T10:16:02;24.70;55.20
14877;DHT22;69691;48.172;17.070;2023-05-24T10:18:28;24.70;54.60
14877;DHT22;69691;48.172;17.070;2023-05-24T10:20:54;24.60;54.90
14877;DHT22;69691;48.172;17.070;2023-05-24T10:23:28;24.50;54.90
14877;DHT22;69691;48.172;17.070;2023-05-24T10:26:11;24.30;55.60
14877;DHT22;69691;48.172;17.070;2023-05-24T10:28:53;24.20;55.00
14877;DHT22;69691;48.172;17.070;2023-05-24T10:31:33;23.90;55.90
14877;DHT22;69691;48.172;17.070;2023-05-24T10:34:02;23.80;56.00
14877;DHT22;69691;48.172;17.070;2023-05-24T10:36:31;23.50;55.70
14877;DHT22;69691;48.172;17.070;2023-05-24T10:38:57;23.40;55.90
14877;DHT22;69691;48.172;17.070;2023-05-24T10:41:26;23.20;56.10
14877;DHT22;69691;48.172;17.070;2023-05-24T10:43:52;23.00;57.30
14877;DHT22;69691;48.172;17.070;2023-05-24T10:46:19;22.90;57.50
14877;DHT22;69691;48.172;17.070;2023-05-24T10:48:59;22.90;58.00
14877;DHT22;69691;48.172;17.070;2023-05-24T10:51:37;23.00;57.50
14877;DHT22;69691;48.172;17.070;2023-05-24T10:54:13;23.10;57.50
14877;DHT22;69691;48.172;17.070;2023-05-24T10:56:48;23.20;57.60
14877;DHT22;69691;48.172;17.070;2023-05-24T10:59:41;23.10;57.30
14877;DHT22;69691;48.172;17.070;2023-05-24T11:02:10;23.10;57.60
14877;DHT22;69691;48.172;17.070;2023-05-24T11:04:44;23.20;57.70
14877;DHT22;69691;48.172;17.070;2023-05-24T11:07:13;23.30;57.60
14877;DHT22;69691;48.172;17.070;2023-05-24T11:09:41;23.30;57.40
14877;DHT22;69691;48.172;17.070;2023-05-24T11:12:18;23.40;57.00
14877;DHT22;69691;48.172;17.070;2023-05-24T11:14:49;23.50;57.00
14877;DHT22;69691;48.172;17.070;2023-05-24T11:17:15;23.60;57.00
14877;DHT22;69691;48.172;17.070;2023-05-24T11:19:52;23.60;56.60
14877;DHT22;69691;48.172;17.070;2023-05-24T11:22:21;23.50;57.00
14877;DHT22;69691;48.172;17.070;2023-05-24T11:24:50;23.30;56.90
14877;DHT22;69691;48.172;17.070;2023-05-24T11:27:16;23.30;56.50
14877;DHT22;69691;48.172;17.070;2023-05-24T11:29:43;23.30;56.60
14877;DHT22;69691;48.172;17.070;2023-05-24T11:32:15;23.30;56.90
14877;DHT22;69691;48.172;17.070;2023-05-24T11:34:43;23.30;56.90
14877;DHT22;69691;48.172;17.070;2023-05-24T11:37:11;23.00;57.50
14877;DHT22;69691;48.172;17.070;2023-05-24T11:39:37;23.00;57.60
14877;DHT22;69691;48.172;17.070;2023-05-24T11:42:03;22.80;57.70
14877;DHT22;69691;48.172;17.070;2023-05-24T11:44:31;22.80;58.00
14877;DHT22;69691;48.172;17.070;2023-05-24T11:47:02;22.80;57.90
14877;DHT22;69691;48.172;17.070;2023-05-24T11:49:30;23.10;58.30
14877;DHT22;69691;48.172;17.070;2023-05-24T11:51:57;23.50;57.80
14877;DHT22;69691;48.172;17.070;2023-05-24T11:54:24;23.70;56.80
14877;DHT22;69691;48.172;17.070;2023-05-24T11:56:52;23.60;57.00
14877;DHT22;69691;48.172;17.070;2023-05-24T11:59:22;23.50;56.80
14877;DHT22;69691;48.172;17.070;2023-05-24T12:02:02;23.50;57.40
14877;DHT22;69691;48.172;17.070;2023-05-24T12:04:30;23.70;56.90
14877;DHT22;69691;48.172;17.070;2023-05-24T12:06:57;24.10;56.40
14877;DHT22;69691;48.172;17.070;2023-05-24T12:09:23;24.30;55.70
14877;DHT22;69691;48.172;17.070;2023-05-24T12:11:50;24.30;55.80
14877;DHT22;69691;48.172;17.070;2023-05-24T12:14:27;24.30;55.00
14877;DHT22;69691;48.172;17.070;2023-05-24T12:16:57;24.40;54.70
14877;DHT22;69691;48.172;17.070;2023-05-24T12:19:28;24.60;55.40
14877;DHT22;69691;48.172;17.070;2023-05-24T12:21:56;24.70;54.80
14877;DHT22;69691;48.172;17.070;2023-05-24T12:24:24;24.50;54.60
14877;DHT22;69691;48.172;17.070;2023-05-24T12:26:50;24.30;54.90
14877;DHT22;69691;48.172;17.070;2023-05-24T12:29:18;24.00;55.50
14877;DHT22;69691;48.172;17.070;2023-05-24T12:31:47;23.80;55.90
14877;DHT22;69691;48.172;17.070;2023-05-24T12:34:19;23.60;56.40
14877;DHT22;69691;48.172;17.070;2023-05-24T12:36:46;23.40;56.70
14877;DHT22;69691;48.172;17.070;2023-05-24T12:39:26;23.20;56.60
14877;DHT22;69691;48.172;17.070;2023-05-24T12:41:57;22.80;57.10
14877;DHT22;69691;48.172;17.070;2023-05-24T12:44:34;22.70;57.90
14877;DHT22;69691;48.172;17.070;2023-05-24T12:47:02;22.70;57.60
14877;DHT22;69691;48.172;17.070;2023-05-24T12:49:31;22.70;57.80
14877;DHT22;69691;48.172;17.070;2023-05-24T12:51:57;22.70;58.00
14877;DHT22;69691;48.172;17.070;2023-05-24T12:54:25;22.60;58.10
14877;DHT22;69691;48.172;17.070;2023-05-24T12:56:53;22.60;58.10
14877;DHT22;69691;48.172;17.070;2023-05-24T12:59:20;22.70;58.00
14877;DHT22;69691;48.172;17.070;2023-05-24T13:01:45;22.90;57.50
14877;DHT22;69691;48.172;17.070;2023-05-24T13:04:17;23.00;57.10
14877;DHT22;69691;48.172;17.070;2023-05-24T13:06:45;23.20;56.80
14877;DHT22;69691;48.172;17.070;2023-05-24T13:09:12;23.20;56.20
14877;DHT22;69691;48.172;17.070;2023-05-24T13:11:39;23.30;55.80
14877;DHT22;69691;48.172;17.070;2023-05-24T13:14:05;23.20;55.80
14877;DHT22;69691;48.172;17.070;2023-05-24T13:16:31;23.20;56.60
14877;DHT22;69691;48.172;17.070;2023-05-24T13:18:58;23.20;56.20
14877;DHT22;69691;48.172;17.070;2023-05-24T13:21:24;23.30;56.00
14877;DHT22;69691;48.172;17.070;2023-05-24T13:23:50;23.50;55.80
14877;DHT22;69691;48.172;17.070;2023-05-24T13:26:16;23.80;55.40
14877;DHT22;69691;48.172;17.070;2023-05-24T13:28:43;24.00;54.50
14877;DHT22;69691;48.172;17.070;2023-05-24T13:31:08;23.90;54.70
14877;DHT22;69691;48.172;17.070;2023-05-24T13:33:34;23.60;55.20
14877;DHT22;69691;48.172;17.070;2023-05-24T13:36:00;23.30;55.80
14877;DHT22;69691;48.172;17.070;2023-05-24T13:38:26;23.00;55.70
14877;DHT22;69691;48.172;17.070;2023-05-24T13:40:53;22.80;56.30
14877;DHT22;69691;48.172;17.070;2023-05-24T13:43:20;22.70;56.60
14877;DHT22;69691;48.172;17.070;2023-05-24T13:45:46;22.60;57.00
14877;DHT22;69691;48.172;17.070;2023-05-24T13:48:12;22.60;57.50
14877;DHT22;69691;48.172;17.070;2023-05-24T13:50:38;22.50;57.90
14877;DHT22;69691;48.172;17.070;2023-05-24T13:53:05;22.50;58.10
14877;DHT22;69691;48.172;17.070;2023-05-24T13:55:33;22.40;58.30
14877;DHT22;69691;48.172;17.070;2023-05-24T13:58:01;22.40;58.60
14877;DHT22;69691;48.172;17.070;2023-05-24T14:00:29;22.40;58.70
14877;DHT22;69691;48.172;17.070;2023-05-24T14:02:55;22.40;58.60
14877;DHT22;69691;48.172;17.070;2023-05-24T14:05:22;22.50;58.40
14877;DHT22;69691;48.172;17.070;2023-05-24T14:07:48;22.70;58.40
14877;DHT22;69691;48.172;17.070;2023-05-24T14:10:14;22.80;58.20
14877;DHT22;69691;48.172;17.070;2023-05-24T14:12:40;22.70;58.10
14877;DHT22;69691;48.172;17.070;2023-05-24T14:15:07;22.60;58.70
14877;DHT22;69691;48.172;17.070;2023-05-24T14:17:33;22.60;58.90
14877;DHT22;69691;48.172;17.070;2023-05-24T14:19:59;22.60;59.60
14877;DHT22;69691;48.172;17.070;2023-05-24T14:22:25;22.70;59.00
14877;DHT22;69691;48.172;17.070;2023-05-24T14:24:53;22.60;58.80
14877;DHT22;69691;48.172;17.070;2023-05-24T14:27:19;22.50;58.50
14877;DHT22;69691;48.172;17.070;2023-05-24T14:29:45;22.40;58.80
14877;DHT22;69691;48.172;17.070;2023-05-24T14:32:11;22.40;59.10
14877;DHT22;69691;48.172;17.070;2023-05-24T14:34:37;22.40;59.10
14877;DHT22;69691;48.172;17.070;2023-05-24T14:37:03;22.40;58.10
14877;DHT22;69691;48.172;17.070;2023-05-24T14:39:29;22.40;58.50
14877;DHT22;69691;48.172;17.070;2023-05-24T14:41:55;22.50;58.20
14877;DHT22;69691;48.172;17.070;2023-05-24T14:44:21;22.50;58.50
14877;DHT22;69691;48.172;17.070;2023-05-24T14:46:47;22.50;58.50
14877;DHT22;69691;48.172;17.070;2023-05-24T14:49:13;22.40;58.30
14877;DHT22;69691;48.172;17.070;2023-05-24T14:51:39;22.30;58.30
14877;DHT22;69691;48.172;17.070;2023-05-24T14:54:05;22.20;57.90
14877;DHT22;69691;48.172;17.070;2023-05-24T14:56:32;22.20;58.20
14877;DHT22;69691;48.172;17.070;2023-05-24T14:58:58;22.20;58.10
14877;DHT22;69691;48.172;17.070;2023-05-24T15:01:24;22.10;57.50
14877;DHT22;69691;48.172;17.070;2023-05-24T15:03:50;22.10;57.70
14877;DHT22;69691;48.172;17.070;2023-05-24T15:06:16;22.00;57.60
14877;DHT22;69691;48.172;17.070;2023-05-24T15:08:42;22.00;57.60
14877;DHT22;69691;48.172;17.070;2023-05-24T15:11:08;21.90;57.70
14877;DHT22;69691;48.172;17.070;2023-05-24T15:13:35;21.90;57.50
14877;DHT22;69691;48.172;17.070;2023-05-24T15:16:03;21.90;57.00
14877;DHT22;69691;48.172;17.070;2023-05-24T15:18:30;21.90;56.60
14877;DHT22;69691;48.172;17.070;2023-05-24T15:20:56;21.80;56.60
14877;DHT22;69691;48.172;17.070;2023-05-24T15:23:23;21.80;57.30
14877;DHT22;69691;48.172;17.070;2023-05-24T15:25:49;21.70;57.20
14877;DHT22;69691;48.172;17.070;2023-05-24T15:28:16;21.70;58.00
14877;DHT22;69691;48.172;17.070;2023-05-24T15:30:45;21.60;58.30